Time;durP1;ratioP1;P1;durP2;ratioP2;P2;SDS_P1;SDS_P2;PMS_P1;PMS_P2;Temp;Humidity;BMP_temperature;BMP_pressure;BME280_temperature;BME280_humidity;BME280_pressure;Samples;Min_cycle;Max_cycle;Signal;HPM_P1;HPM_P2
2022/02/20 00:00:36;;;;;;;5.37;1.27;;;;;;;0.81;95.50;95460.28;5021714;28;20489;-79
2022/02/20 00:03:01;;;;;;;5.43;1.30;;;;;;;0.88;95.81;95458.97;5020585;28;20198;-79
2022/02/20 00:05:27;;;;;;;4.73;1.00;;;;;;;0.85;95.76;95457.44;5022977;28;20593;-79
2022/02/20 00:07:52;;;;;;;5.67;1.37;;;;;;;0.92;95.81;95441.75;5020556;28;20180;-78
2022/02/20 00:10:18;;;;;;;3.37;1.87;;;;;;;0.83;96.52;95454.16;5021445;28;20426;-79
2022/02/20 00:12:43;;;;;;;4.10;1.70;;;;;;;0.82;96.48;95432.06;5037178;28;20200;-78
2022/02/20 00:15:08;;;;;;;4.20;1.23;;;;;;;0.87;97.06;95443.75;5036255;28;20181;-78
2022/02/20 00:17:34;;;;;;;2.40;0.90;;;;;;;0.89;97.50;95413.81;5039066;28;20189;-79
2022/02/20 00:19:59;;;;;;;2.03;1.00;;;;;;;0.86;97.47;95427.59;5021309;28;20623;-79
2022/02/20 00:22:24;;;;;;;2.73;1.10;;;;;;;0.95;95.95;95427.03;5020686;28;20587;-80
2022/02/20 00:24:50;;;;;;;3.93;0.93;;;;;;;0.99;95.44;95425.94;5037579;28;20186;-79
2022/02/20 00:27:15;;;;;;;5.50;1.30;;;;;;;1.04;95.59;95413.69;5038098;28;20197;-78
2022/02/20 00:29:40;;;;;;;3.57;0.97;;;;;;;1.11;95.80;95404.72;5037745;28;20185;-79
2022/02/20 00:32:06;;;;;;;3.47;1.00;;;;;;;1.08;94.89;95402.38;5019757;28;20210;-78
2022/02/20 00:34:31;;;;;;;5.53;1.10;;;;;;;1.20;94.87;95416.13;5037855;28;20204;-77
2022/02/20 00:36:57;;;;;;;1.63;0.90;;;;;;;1.18;94.73;95409.47;5020542;28;20197;-79
2022/02/20 00:39:22;;;;;;;3.50;1.00;;;;;;;1.27;94.25;95417.41;5037084;28;20178;-79
2022/02/20 00:41:47;;;;;;;3.23;0.80;;;;;;;1.35;93.61;95416.94;5037562;28;20198;-78
2022/02/20 00:44:13;;;;;;;2.47;0.97;;;;;;;1.36;93.66;95419.41;5022255;28;20236;-79
2022/02/20 00:46:38;;;;;;;3.27;0.83;;;;;;;1.34;93.64;95417.88;5035730;28;20182;-78
2022/02/20 00:49:03;;;;;;;4.40;0.90;;;;;;;1.40;92.88;95418.28;5022155;28;20232;-79
2022/02/20 00:51:28;;;;;;;2.40;0.93;;;;;;;1.48;92.19;95419.53;5021527;28;20209;-79
2022/02/20 00:53:54;;;;;;;1.80;1.00;;;;;;;1.51;91.94;95409.97;5038424;28;20192;-80
2022/02/20 00:56:19;;;;;;;2.30;1.10;;;;;;;1.57;91.57;95409.56;5022288;28;20189;-80
2022/02/20 00:58:44;;;;;;;3.97;1.37;;;;;;;1.57;91.10;95414.66;5021828;28;20252;-79
2022/02/20 01:01:11;;;;;;;4.47;1.40;;;;;;;1.63;91.26;95428.84;5038973;28;20202;-77
2022/02/20 01:03:36;;;;;;;3.20;1.20;;;;;;;1.61;90.64;95433.22;5037518;28;20202;-77
2022/02/20 01:06:02;;;;;;;3.77;1.33;;;;;;;1.69;89.79;95448.94;5037773;28;20191;-77
2022/02/20 01:08:27;;;;;;;4.80;1.53;;;;;;;1.81;89.30;95437.09;5021414;28;20186;-78
2022/02/20 01:10:52;;;;;;;6.77;1.40;;;;;;;1.85;88.96;95441.91;5037842;28;20198;-79
2022/02/20 01:13:17;;;;;;;3.63;1.20;;;;;;;1.90;88.26;95450.13;5021251;28;20201;-77
2022/02/20 01:15:43;;;;;;;6.60;1.50;;;;;;;1.90;87.96;95452.69;5038321;28;20239;-79
2022/02/20 01:18:08;;;;;;;3.43;1.67;;;;;;;1.97;88.12;95469.31;5038890;28;20203;-77
2022/02/20 01:20:33;;;;;;;4.37;1.40;;;;;;;2.01;87.44;95459.69;5007972;28;20569;-77
2022/02/20 01:22:59;;;;;;;3.30;1.70;;;;;;;1.98;88.19;95450.47;5019272;28;20646;-79
2022/02/20 01:25:24;;;;;;;4.93;1.33;;;;;;;2.06;88.03;95464.53;5002432;28;20187;-77
2022/02/20 01:27:49;;;;;;;5.03;1.10;;;;;;;2.05;87.59;95462.91;5002218;28;20187;-78
2022/02/20 01:30:15;;;;;;;3.70;1.30;;;;;;;2.11;87.18;95462.47;5017985;28;20187;-78
2022/02/20 01:32:40;;;;;;;3.83;1.13;;;;;;;2.14;86.98;95462.31;5017453;28;20199;-78
2022/02/20 01:35:08;;;;;;;5.53;1.10;;;;;;;2.09;87.19;95470.25;5017751;28;20182;-78
2022/02/20 01:37:34;;;;;;;9.60;1.57;;;;;;;2.07;87.36;95461.88;5000920;28;20183;-77
2022/02/20 01:39:59;;;;;;;5.57;1.10;;;;;;;2.12;87.03;95466.69;5015373;28;20265;-77
2022/02/20 01:42:24;;;;;;;6.20;2.10;;;;;;;2.17;87.37;95464.66;4997756;28;20243;-78
2022/02/20 01:44:50;;;;;;;3.83;1.40;;;;;;;2.19;87.19;95453.38;5013397;28;20223;-78
2022/02/20 01:47:15;;;;;;;4.33;1.10;;;;;;;2.19;87.54;95462.81;4998650;28;20206;-77
2022/02/20 01:49:42;;;;;;;6.23;1.50;;;;;;;2.25;87.63;95465.00;4998328;28;20553;-76
2022/02/20 01:52:07;;;;;;;4.87;1.33;;;;;;;2.25;88.41;95470.13;4997985;28;20206;-79
2022/02/20 01:54:33;;;;;;;3.67;1.57;;;;;;;2.23;88.46;95469.41;4997635;28;20191;-78
2022/02/20 01:56:59;;;;;;;5.30;1.20;;;;;;;2.31;88.34;95471.47;4998275;28;20497;-78
2022/02/20 01:59:24;;;;;;;7.50;1.40;;;;;;;2.28;89.21;95477.59;4997267;28;20180;-79
2022/02/20 02:01:51;;;;;;;6.53;1.70;;;;;;;2.33;89.40;95490.13;4997352;28;20627;-79
2022/02/20 02:04:16;;;;;;;8.90;1.50;;;;;;;2.29;90.28;95492.03;4996482;28;20208;-78
2022/02/20 02:06:42;;;;;;;5.17;1.40;;;;;;;2.35;90.15;95486.53;4994292;28;20211;-78
2022/02/20 02:09:07;;;;;;;5.97;1.40;;;;;;;2.33;89.98;95496.06;4995790;28;20603;-78
2022/02/20 02:11:33;;;;;;;10.57;1.93;;;;;;;2.40;89.18;95483.69;4995342;28;20628;-78
2022/02/20 02:13:58;;;;;;;5.70;1.03;;;;;;;2.52;88.92;95481.13;5015881;28;20175;-78
2022/02/20 02:16:24;;;;;;;3.30;1.30;;;;;;;2.54;88.95;95492.09;5017746;28;20186;-78
2022/02/20 02:18:50;;;;;;;4.40;1.00;;;;;;;2.61;88.16;95496.84;5000442;28;20171;-76
2022/02/20 02:21:15;;;;;;;5.57;1.40;;;;;;;2.50;88.30;95485.53;5016446;28;20201;-78
2022/02/20 02:23:41;;;;;;;3.23;0.93;;;;;;;2.51;88.33;95482.06;5001155;28;20210;-78
2022/02/20 02:26:06;;;;;;;5.53;1.47;;;;;;;2.57;88.55;95483.41;5017296;28;20640;-78
2022/02/20 02:28:34;;;;;;;7.70;1.33;;;;;;;2.68;88.38;95491.22;5018469;28;20545;-79
2022/02/20 02:31:02;;;;;;;4.00;1.00;;;;;;;2.70;88.75;95498.78;5019413;28;20195;-79
2022/02/20 02:33:28;;;;;;;4.53;1.10;;;;;;;2.68;89.71;95500.66;5003691;28;20235;-79
2022/02/20 02:35:54;;;;;;;4.67;1.37;;;;;;;2.66;90.25;95500.75;5018385;28;20171;-79
2022/02/20 02:38:25;;;;;;;5.10;1.10;;;;;;;2.59;90.54;95493.56;5018752;28;20175;-79
2022/02/20 02:40:50;;;;;;;4.57;1.07;;;;;;;2.66;89.98;95487.09;5018525;28;20194;-78
2022/02/20 02:43:16;;;;;;;3.97;1.43;;;;;;;2.69;89.49;95476.63;5001833;28;20211;-79
2022/02/20 02:45:41;;;;;;;4.20;1.23;;;;;;;2.72;89.66;95471.31;5016959;28;20179;-78
2022/02/20 02:48:06;;;;;;;4.03;1.13;;;;;;;2.74;89.77;95483.13;5018722;28;20245;-79
2022/02/20 02:50:32;;;;;;;5.87;1.20;;;;;;;2.81;89.38;95492.03;5002152;28;20187;-79
2022/02/20 02:52:57;;;;;;;5.90;1.00;;;;;;;2.75;89.87;95486.50;5017526;28;20648;-79
2022/02/20 02:55:22;;;;;;;6.00;1.20;;;;;;;2.79;90.25;95493.88;5018374;28;20557;-78
2022/02/20 02:57:48;;;;;;;3.50;1.20;;;;;;;2.84;89.70;95488.47;5018384;28;20180;-79
2022/02/20 03:00:13;;;;;;;5.77;1.13;;;;;;;2.88;90.18;95497.56;5017810;28;20175;-78
2022/02/20 03:02:39;;;;;;;2.57;1.50;;;;;;;2.84;90.49;95494.41;5017473;28;20306;-79
2022/02/20 03:05:05;;;;;;;4.27;1.13;;;;;;;2.83;90.53;95499.63;5018125;28;20185;-79
2022/02/20 03:07:30;;;;;;;3.77;1.00;;;;;;;2.84;90.81;95509.78;5019959;28;20184;-79
2022/02/20 03:09:56;;;;;;;2.90;0.80;;;;;;;2.82;90.92;95503.09;5018275;28;20176;-79
2022/02/20 03:12:21;;;;;;;4.00;1.23;;;;;;;2.84;90.97;95503.84;5017237;28;20237;-79
2022/02/20 03:14:46;;;;;;;6.53;1.30;;;;;;;2.87;90.74;95495.94;5018791;28;20179;-79
2022/02/20 03:17:11;;;;;;;5.23;1.10;;;;;;;2.88;90.38;95492.44;5003012;28;20245;-80
2022/02/20 03:19:37;;;;;;;5.37;1.10;;;;;;;2.91;90.40;95492.22;5021302;28;20184;-79
2022/02/20 03:22:02;;;;;;;7.20;1.30;;;;;;;2.89;90.97;95488.13;5032015;28;20201;-78
2022/02/20 03:24:28;;;;;;;5.23;1.17;;;;;;;2.92;90.59;95499.03;5033190;28;20180;-80
2022/02/20 03:26:53;;;;;;;2.87;1.20;;;;;;;2.94;91.11;95509.19;5013689;28;20180;-79
2022/02/20 03:29:18;;;;;;;3.10;0.97;;;;;;;2.93;90.94;95516.06;5007843;28;20175;-80
2022/02/20 03:31:43;;;;;;;3.37;1.03;;;;;;;2.96;91.60;95515.03;5022665;28;20195;-79
2022/02/20 03:34:09;;;;;;;5.07;1.40;;;;;;;3.00;91.46;95524.97;5023286;28;20172;-80
2022/02/20 03:36:34;;;;;;;3.70;1.20;;;;;;;2.96;91.95;95528.66;5022803;28;20172;-80
2022/02/20 03:39:00;;;;;;;3.93;1.00;;;;;;;2.94;93.03;95538.22;5021715;28;20209;-79
2022/02/20 03:41:25;;;;;;;6.27;1.60;;;;;;;2.92;93.41;95540.06;5004664;28;20206;-80
2022/02/20 03:43:50;;;;;;;3.97;1.30;;;;;;;2.98;93.42;95543.94;5004604;28;20305;-79
2022/02/20 03:46:17;;;;;;;3.87;1.00;;;;;;;2.95;93.39;95534.72;5003505;28;20210;-79
2022/02/20 03:48:42;;;;;;;1.73;0.97;;;;;;;2.86;93.42;95535.34;5005014;28;20306;-80
2022/02/20 03:51:08;;;;;;;4.70;1.27;;;;;;;2.92;93.21;95536.69;5021645;28;20206;-78
2022/02/20 03:53:33;;;;;;;4.03;1.10;;;;;;;2.98;92.72;95531.13;5005020;28;20191;-80
2022/02/20 03:55:58;;;;;;;2.80;1.10;;;;;;;2.94;92.99;95535.66;5005388;28;20179;-79
2022/02/20 03:58:23;;;;;;;4.13;1.07;;;;;;;2.95;92.85;95527.03;5021986;28;20176;-78
2022/02/20 04:00:49;;;;;;;1.80;0.83;;;;;;;2.97;93.00;95540.56;5021631;28;20675;-79
2022/02/20 04:03:14;;;;;;;3.67;1.00;;;;;;;3.01;93.29;95544.59;5020781;28;20203;-80
2022/02/20 04:05:39;;;;;;;4.70;1.30;;;;;;;2.94;93.70;95543.34;5021047;28;20179;-79
2022/02/20 04:08:06;;;;;;;2.23;1.20;;;;;;;3.02;93.31;95548.78;5021481;28;20167;-78
2022/02/20 04:10:32;;;;;;;3.83;1.20;;;;;;;3.07;92.83;95553.59;5020141;28;20191;-77
2022/02/20 04:12:57;;;;;;;5.10;1.10;;;;;;;3.05;93.21;95563.97;5019570;28;20182;-78
2022/02/20 04:15:22;;;;;;;4.40;0.90;;;;;;;3.05;93.40;95561.41;5019576;28;20179;-78
2022/02/20 04:17:48;;;;;;;5.27;1.20;;;;;;;3.05;93.40;95561.41;5003735;28;20186;-78
2022/02/20 04:20:16;;;;;;;3.50;1.10;;;;;;;3.07;93.02;95569.00;5003404;28;20565;-78
2022/02/20 04:22:42;;;;;;;5.53;1.10;;;;;;;3.10;92.08;95574.78;5003768;28;20207;-79
2022/02/20 04:25:08;;;;;;;6.00;0.93;;;;;;;3.20;92.01;95563.88;5020119;28;20190;-78
2022/02/20 04:27:34;;;;;;;2.93;1.10;;;;;;;3.20;92.24;95581.84;5019370;28;20179;-79
2022/02/20 04:29:59;;;;;;;3.90;1.00;;;;;;;3.25;92.01;95585.75;5002580;28;20201;-77
2022/02/20 04:32:24;;;;;;;6.30;1.70;;;;;;;3.26;92.58;95584.81;5002605;28;20249;-78
2022/02/20 04:34:49;;;;;;;3.23;1.47;;;;;;;3.28;92.58;95580.41;5020517;28;20175;-78
2022/02/20 04:37:15;;;;;;;6.27;1.10;;;;;;;3.28;91.97;95577.03;5020626;28;20186;-79
2022/02/20 04:39:40;;;;;;;4.60;1.20;;;;;;;3.28;92.06;95583.00;5019757;28;20179;-78
2022/02/20 04:42:06;;;;;;;3.87;1.30;;;;;;;3.35;92.51;95591.91;5018493;28;20203;-77
2022/02/20 04:44:31;;;;;;;1.77;1.00;;;;;;;3.30;92.14;95585.44;5018938;28;20187;-78
2022/02/20 04:46:57;;;;;;;3.97;1.00;;;;;;;3.31;91.63;95589.66;5018056;28;20597;-77
2022/02/20 04:49:22;;;;;;;2.23;0.97;;;;;;;3.35;91.49;95594.47;5019976;28;20234;-78
2022/02/20 04:51:47;;;;;;;1.93;0.80;;;;;;;3.33;91.62;95600.63;5002364;28;20205;-79
2022/02/20 04:54:15;;;;;;;3.40;1.17;;;;;;;3.27;91.87;95611.28;5019290;28;20202;-78
2022/02/20 04:56:42;;;;;;;3.37;1.00;;;;;;;3.30;91.56;95598.28;5003775;28;20205;-79
2022/02/20 04:59:08;;;;;;;2.63;1.23;;;;;;;3.29;91.62;95599.22;5019567;28;20182;-79
2022/02/20 05:01:33;;;;;;;4.83;3.47;;;;;;;3.29;92.08;95612.84;5002158;28;20215;-78
2022/02/20 05:03:58;;;;;;;4.07;2.27;;;;;;;3.28;92.25;95608.66;5018533;28;20234;-78
2022/02/20 05:06:27;;;;;;;3.47;1.00;;;;;;;3.34;91.95;95615.09;5018823;28;20196;-77
2022/02/20 05:08:55;;;;;;;4.93;0.80;;;;;;;3.34;92.36;95620.25;5019717;28;20666;-78
2022/02/20 05:11:21;;;;;;;2.50;1.30;;;;;;;3.35;92.97;95627.84;5018515;28;20230;-78
2022/02/20 05:13:46;;;;;;;2.57;1.10;;;;;;;3.27;93.34;95619.84;5018321;28;20207;-78
2022/02/20 05:16:11;;;;;;;2.40;0.93;;;;;;;3.27;93.08;95611.28;5002146;28;20529;-78
2022/02/20 05:18:37;;;;;;;3.30;1.10;;;;;;;3.26;93.31;95612.22;5002839;28;20183;-79
2022/02/20 05:21:02;;;;;;;1.40;0.80;;;;;;;3.18;93.94;95611.91;5018685;28;20245;-79
2022/02/20 05:23:27;;;;;;;1.60;0.83;;;;;;;3.23;93.92;95608.13;5018550;28;20207;-78
2022/02/20 05:25:53;;;;;;;2.43;0.80;;;;;;;3.17;94.15;95600.81;5002234;28;20221;-78
2022/02/20 05:28:18;;;;;;;1.80;1.00;;;;;;;3.19;94.48;95609.25;5018243;28;20179;-79
2022/02/20 05:30:44;;;;;;;3.87;1.17;;;;;;;3.16;94.50;95613.75;5018129;28;20179;-78
2022/02/20 05:33:09;;;;;;;4.33;0.83;;;;;;;3.20;94.42;95615.22;5018822;28;20772;-78
2022/02/20 05:35:35;;;;;;;2.37;1.20;;;;;;;3.14;94.77;95619.00;5001915;28;20197;-78
2022/02/20 05:38:00;;;;;;;1.10;0.70;;;;;;;3.09;94.97;95613.31;5018368;28;20218;-78
2022/02/20 05:40:25;;;;;;;4.07;0.87;;;;;;;3.16;94.70;95619.72;5019070;28;20652;-80
2022/02/20 05:42:57;;;;;;;4.73;1.30;;;;;;;3.21;94.82;95617.69;5018008;28;20208;-78
2022/02/20 05:45:22;;;;;;;2.57;1.10;;;;;;;3.24;93.79;95619.22;5017807;28;20178;-77
2022/02/20 05:47:48;;;;;;;3.97;1.00;;;;;;;3.32;93.62;95615.22;5001940;28;20198;-81
2022/02/20 05:50:13;;;;;;;1.67;0.87;;;;;;;3.27;93.97;95611.28;5001856;28;20186;-79
2022/02/20 05:52:39;;;;;;;3.53;1.10;;;;;;;3.25;94.34;95603.69;5017678;28;20191;-78
2022/02/20 05:55:05;;;;;;;3.40;1.00;;;;;;;3.26;94.28;95602.78;5018567;28;20195;-78
2022/02/20 05:57:44;;;;;;;2.20;0.80;;;;;;;3.29;94.17;95594.06;5018600;28;20191;-78
2022/02/20 06:00:10;;;;;;;3.20;1.23;;;;;;;3.26;94.72;95596.81;5018334;28;20185;-78
2022/02/20 06:02:35;;;;;;;3.67;1.07;;;;;;;3.24;94.21;95589.22;5017942;28;20230;-78
2022/02/20 06:05:01;;;;;;;4.43;1.27;;;;;;;3.28;94.39;95597.56;5019052;28;20241;-78
2022/02/20 06:07:26;;;;;;;4.30;1.40;;;;;;;3.27;94.00;95591.63;5019477;28;20183;-79
2022/02/20 06:09:51;;;;;;;4.43;1.10;;;;;;;3.31;93.95;95602.47;5002857;28;20187;-79
2022/02/20 06:12:17;;;;;;;3.63;1.00;;;;;;;3.29;94.01;95600.03;5020494;28;20225;-79
2022/02/20 06:14:42;;;;;;;3.13;1.00;;;;;;;3.37;93.66;95602.09;5003274;28;20183;-79
2022/02/20 06:17:07;;;;;;;5.33;2.83;;;;;;;3.31;94.10;95607.63;5018398;28;20176;-80
2022/02/20 06:19:33;;;;;;;5.43;1.73;;;;;;;3.39;93.89;95602.81;5002187;28;20212;-79
2022/02/20 06:21:58;;;;;;;4.33;1.90;;;;;;;3.38;94.31;95614.81;5019328;28;20202;-80
2022/02/20 06:24:23;;;;;;;3.63;1.07;;;;;;;3.38;93.94;95614.00;5019169;28;20205;-77
2022/02/20 06:26:48;;;;;;;4.73;1.20;;;;;;;3.36;93.96;95616.66;5002264;28;20215;-77
2022/02/20 06:29:14;;;;;;;2.23;0.90;;;;;;;3.42;93.51;95608.53;5018355;28;20175;-79
2022/02/20 06:31:40;;;;;;;3.70;0.80;;;;;;;3.42;92.79;95618.00;5017332;28;20200;-78
2022/02/20 06:34:05;;;;;;;4.53;0.80;;;;;;;3.45;92.86;95622.94;5045718;28;20175;-77
2022/02/20 06:36:41;;;;;;;1.77;0.60;;;;;;;3.50;92.97;95632.88;5015176;28;20187;-79
2022/02/20 06:39:06;;;;;;;1.87;1.10;;;;;;;3.48;92.87;95630.41;5042900;28;20182;-78
2022/02/20 06:41:32;;;;;;;4.70;0.83;;;;;;;3.53;92.67;95624.97;5025445;28;20203;-79
2022/02/20 06:43:57;;;;;;;3.17;1.10;;;;;;;3.50;92.23;95622.63;5020527;28;20276;-80
2022/02/20 06:46:22;;;;;;;1.47;0.80;;;;;;;3.50;92.46;95618.28;5016678;28;20206;-79
2022/02/20 06:48:48;;;;;;;2.07;0.93;;;;;;;3.48;93.03;95625.28;5016668;28;20267;-81
2022/02/20 06:51:13;;;;;;;2.03;0.90;;;;;;;3.47;92.10;95628.78;5018945;28;20210;-80
2022/02/20 06:53:38;;;;;;;2.77;0.70;;;;;;;3.46;92.33;95632.28;5007111;28;20187;-81
2022/02/20 06:56:04;;;;;;;1.97;0.80;;;;;;;3.48;92.63;95627.84;5008632;28;20186;-80
2022/02/20 06:58:29;;;;;;;2.50;1.10;;;;;;;3.44;92.70;95638.41;5007039;28;20649;-81
2022/02/20 07:00:54;;;;;;;4.47;1.03;;;;;;;3.48;92.74;95637.31;5022247;28;20191;-81
2022/02/20 07:03:20;;;;;;;3.03;1.03;;;;;;;3.47;93.25;95644.19;5003540;28;20577;-80
2022/02/20 07:05:45;;;;;;;2.93;1.00;;;;;;;3.43;92.94;95647.88;5013700;28;20676;-79
2022/02/20 07:08:10;;;;;;;1.37;0.80;;;;;;;3.44;93.13;95639.22;5018750;28;20183;-79
2022/02/20 07:10:35;;;;;;;1.87;1.10;;;;;;;3.35;93.88;95627.00;5019675;28;20184;-79
2022/02/20 07:13:01;;;;;;;2.37;1.10;;;;;;;3.44;93.02;95639.22;5004869;28;20179;-79
2022/02/20 07:15:26;;;;;;;3.00;0.87;;;;;;;3.40;92.94;95643.75;5022397;28;20187;-78
2022/02/20 07:17:52;;;;;;;3.43;1.30;;;;;;;3.39;92.92;95639.56;5004910;28;20268;-80
2022/02/20 07:20:17;;;;;;;2.13;0.90;;;;;;;3.27;93.71;95647.22;5004430;28;20179;-80
2022/02/20 07:22:44;;;;;;;4.20;0.80;;;;;;;3.29;93.49;95653.09;5020549;28;20254;-78
2022/02/20 07:25:09;;;;;;;0.93;0.77;;;;;;;3.27;93.51;95653.22;5004509;28;20679;-79
2022/02/20 07:27:39;;;;;;;1.23;0.70;;;;;;;3.26;93.98;95651.53;5020196;28;20189;-79
2022/02/20 07:30:06;;;;;;;3.53;1.63;;;;;;;3.25;93.66;95655.03;5004064;28;20667;-79
2022/02/20 07:32:31;;;;;;;3.40;1.40;;;;;;;3.25;93.87;95649.09;5002920;28;20625;-79
2022/02/20 07:34:56;;;;;;;3.90;1.30;;;;;;;3.25;93.41;95643.94;5010191;28;20251;-78
2022/02/20 07:37:22;;;;;;;3.67;1.30;;;;;;;3.35;93.01;95644.97;5026499;28;20182;-79
2022/02/20 07:39:47;;;;;;;1.30;0.93;;;;;;;3.34;92.53;95636.47;5034797;28;20178;-79
2022/02/20 07:42:13;;;;;;;2.17;0.60;;;;;;;3.35;92.11;95637.28;5020679;28;20237;-77
2022/02/20 07:44:39;;;;;;;2.50;0.87;;;;;;;3.42;91.59;95631.66;5021172;28;20325;-78
2022/02/20 07:47:04;;;;;;;2.17;1.13;;;;;;;3.56;91.48;95628.16;5005312;28;20198;-80
2022/02/20 07:49:29;;;;;;;4.27;1.60;;;;;;;3.60;90.97;95628.78;5020451;28;20189;-80
2022/02/20 07:51:55;;;;;;;3.67;0.80;;;;;;;3.64;90.81;95633.59;5019059;28;20214;-78
2022/02/20 07:54:20;;;;;;;4.40;0.97;;;;;;;3.78;91.05;95632.66;5004690;28;20223;-78
2022/02/20 07:56:45;;;;;;;3.60;0.70;;;;;;;3.88;90.36;95628.53;5020435;28;20185;-79
2022/02/20 07:59:11;;;;;;;2.73;0.90;;;;;;;3.73;91.14;95628.78;5022473;28;20178;-79
2022/02/20 08:01:36;;;;;;;4.03;0.90;;;;;;;3.61;90.52;95618.38;5037657;28;20307;-79
2022/02/20 08:04:01;;;;;;;2.93;1.03;;;;;;;3.68;90.91;95621.38;5021796;28;20264;-79
2022/02/20 08:06:27;;;;;;;2.20;1.13;;;;;;;3.72;91.55;95617.69;5022034;28;20230;-79
2022/02/20 08:08:52;;;;;;;1.93;0.80;;;;;;;3.59;91.72;95616.84;5016492;28;20198;-78
2022/02/20 08:11:18;;;;;;;4.30;0.80;;;;;;;3.66;92.12;95618.91;5015383;28;20204;-79
2022/02/20 08:13:44;;;;;;;5.07;0.80;;;;;;;3.75;91.53;95611.50;5010836;28;20211;-79
2022/02/20 08:16:10;;;;;;;3.40;1.00;;;;;;;3.93;91.42;95620.53;5006692;28;20199;-79
2022/02/20 08:18:35;;;;;;;1.60;0.80;;;;;;;3.80;91.11;95619.72;5002019;28;20176;-79
2022/02/20 08:21:01;;;;;;;3.23;0.80;;;;;;;3.74;91.31;95620.16;5005033;28;20293;-79
2022/02/20 08:23:26;;;;;;;3.43;0.90;;;;;;;3.74;90.84;95622.72;5004336;28;20580;-79
2022/02/20 08:25:51;;;;;;;4.37;0.93;;;;;;;3.74;89.89;95631.25;5047291;28;20205;-79
2022/02/20 08:28:17;;;;;;;2.63;0.87;;;;;;;3.81;90.23;95626.50;5017719;28;20190;-79
2022/02/20 08:30:42;;;;;;;2.93;1.73;;;;;;;3.83;90.32;95640.88;5021686;28;20179;-80
2022/02/20 08:33:07;;;;;;;1.60;0.67;;;;;;;3.94;89.28;95632.44;5001219;28;20182;-76
2022/02/20 08:35:33;;;;;;;3.73;1.13;;;;;;;3.99;89.10;95640.66;5006599;28;20182;-77
2022/02/20 08:38:01;;;;;;;2.07;1.30;;;;;;;4.02;88.23;95647.34;5020557;28;20179;-77
2022/02/20 08:40:26;;;;;;;3.10;1.80;;;;;;;4.09;88.72;95649.38;5010629;28;20186;-79
2022/02/20 08:42:51;;;;;;;4.67;2.40;;;;;;;4.11;88.97;95657.81;5028451;28;20238;-78
2022/02/20 08:45:17;;;;;;;2.37;1.43;;;;;;;3.98;89.24;95664.72;5034856;28;20192;-79
2022/02/20 08:47:43;;;;;;;1.70;1.50;;;;;;;4.14;88.19;95664.47;5032442;28;20598;-78
2022/02/20 08:50:10;;;;;;;3.43;1.20;;;;;;;4.06;88.03;95657.28;5005802;28;20191;-78
2022/02/20 08:52:36;;;;;;;1.37;0.90;;;;;;;4.02;88.46;95663.56;5011380;28;20198;-78
2022/02/20 08:55:03;;;;;;;2.70;0.90;;;;;;;4.11;88.14;95669.84;5039427;28;20204;-77
2022/02/20 08:57:28;;;;;;;0.93;0.80;;;;;;;4.08;87.75;95670.06;5024372;28;20178;-78
2022/02/20 08:59:55;;;;;;;2.67;0.60;;;;;;;3.93;88.18;95665.03;5024641;28;20183;-79
2022/02/20 09:02:20;;;;;;;2.80;0.70;;;;;;;3.89;89.09;95673.06;5040205;28;20187;-77
2022/02/20 09:04:46;;;;;;;4.20;0.70;;;;;;;4.03;89.61;95666.97;5040506;28;20186;-79
2022/02/20 09:07:11;;;;;;;2.50;0.67;;;;;;;3.93;89.54;95666.78;5040141;28;20181;-79
2022/02/20 09:09:36;;;;;;;1.93;0.60;;;;;;;3.96;89.50;95666.56;5024160;28;20178;-78
2022/02/20 09:12:03;;;;;;;2.43;0.87;;;;;;;4.08;88.97;95670.06;5041364;28;20213;-79
2022/02/20 09:14:29;;;;;;;0.87;0.60;;;;;;;4.05;88.17;95665.09;5040022;28;20182;-78
2022/02/20 09:16:54;;;;;;;1.20;0.70;;;;;;;4.24;88.26;95658.63;5023854;28;20186;-79
2022/02/20 09:19:19;;;;;;;0.60;0.47;;;;;;;4.28;87.14;95666.09;5021225;28;20205;-78
2022/02/20 09:21:45;;;;;;;1.40;0.50;;;;;;;4.35;86.53;95652.72;5036639;28;20660;-77
2022/02/20 09:24:10;;;;;;;1.53;0.60;;;;;;;4.36;86.99;95663.81;5020780;28;20369;-78
2022/02/20 09:26:36;;;;;;;0.83;0.50;;;;;;;4.34;86.58;95657.97;5020711;28;20187;-77
2022/02/20 09:29:01;;;;;;;0.70;0.57;;;;;;;4.39;86.38;95654.13;5037460;28;20191;-77
2022/02/20 09:31:27;;;;;;;1.47;0.50;;;;;;;4.21;86.83;95650.28;5020940;28;20203;-77
2022/02/20 09:33:52;;;;;;;2.60;0.47;;;;;;;4.22;86.34;95657.88;5020894;28;20202;-78
2022/02/20 09:36:17;;;;;;;0.70;0.30;;;;;;;4.30;87.34;95659.09;5037255;28;20654;-77
2022/02/20 09:38:43;;;;;;;2.60;0.60;;;;;;;4.37;87.16;95642.31;5021025;28;20178;-78
2022/02/20 09:41:10;;;;;;;2.87;0.60;;;;;;;4.30;86.33;95638.53;5037605;28;20201;-78
2022/02/20 09:43:37;;;;;;;2.23;0.60;;;;;;;4.24;86.64;95640.63;5036825;28;20584;-78
2022/02/20 09:46:04;;;;;;;2.10;0.60;;;;;;;4.36;86.51;95630.41;5020703;28;20725;-78
2022/02/20 09:48:29;;;;;;;3.90;1.80;;;;;;;4.52;85.70;95638.69;5037416;28;20181;-77
2022/02/20 09:50:55;;;;;;;3.40;2.30;;;;;;;4.52;85.37;95620.69;5020867;28;20199;-78
2022/02/20 09:53:20;;;;;;;1.20;1.10;;;;;;;4.57;84.75;95626.31;5019878;28;20200;-77
2022/02/20 09:55:47;;;;;;;3.83;2.70;;;;;;;4.65;84.25;95621.44;5036466;28;20182;-78
2022/02/20 09:58:14;;;;;;;2.13;0.97;;;;;;;4.80;83.69;95610.06;5040014;28;20181;-77
2022/02/20 10:01:09;;;;;;;3.97;2.33;;;;;;;5.10;82.60;95613.88;5024213;28;20181;-79
2022/02/20 10:03:37;;;;;;;2.93;0.70;;;;;;;5.16;82.69;95602.34;5039716;28;20213;-79
2022/02/20 10:06:05;;;;;;;32.87;17.57;;;;;;;4.95;81.78;95615.84;5025218;28;20178;-79
2022/02/20 10:08:46;;;;;;;8.67;5.90;;;;;;;5.33;82.00;95607.88;5041998;28;20192;-79
2022/02/20 10:11:27;;;;;;;2.90;1.27;;;;;;;5.31;81.04;95606.34;5021486;28;20718;-77
2022/02/20 10:14:13;;;;;;;1.67;0.70;;;;;;;5.36;80.31;95615.34;5021801;28;20193;-78
2022/02/20 10:16:38;;;;;;;1.63;0.80;;;;;;;5.44;80.07;95621.69;5039079;28;20194;-78
2022/02/20 10:19:04;;;;;;;2.63;1.13;;;;;;;5.59;79.72;95621.38;5022238;28;20189;-77
2022/02/20 10:21:32;;;;;;;3.33;0.73;;;;;;;5.61;79.68;95626.41;5037869;28;20269;-78
2022/02/20 10:24:15;;;;;;;0.60;0.50;;;;;;;5.46;79.20;95619.81;5025590;28;20587;-78
2022/02/20 10:26:43;;;;;;;1.37;0.40;;;;;;;5.72;78.60;95608.38;5048236;28;20632;-79
2022/02/20 10:29:16;;;;;;;0.50;0.50;;;;;;;5.61;77.59;95613.53;5025439;28;20663;-77
2022/02/20 10:31:48;;;;;;;2.23;1.40;;;;;;;5.99;77.50;95623.53;4998299;28;20206;-78
2022/02/20 10:34:28;;;;;;;1.97;0.70;;;;;;;5.95;76.99;95616.97;5010403;28;20202;-78
2022/02/20 10:36:58;;;;;;;1.23;0.60;;;;;;;6.03;75.79;95618.97;5021141;28;21727;-77
2022/02/20 10:39:32;;;;;;;0.90;0.40;;;;;;;5.80;76.82;95603.47;5029308;28;20224;-78
2022/02/20 10:41:59;;;;;;;0.97;0.40;;;;;;;5.83;76.26;95613.56;5030871;28;20196;-78
2022/02/20 10:44:25;;;;;;;0.57;0.50;;;;;;;5.78;76.50;95592.47;5013709;28;20197;-79
2022/02/20 10:47:11;;;;;;;2.57;0.83;;;;;;;5.93;75.98;95583.59;5011061;28;20239;-78
2022/02/20 10:49:36;;;;;;;0.77;0.40;;;;;;;5.91;76.54;95569.97;5014478;28;20448;-78
2022/02/20 10:52:02;;;;;;;0.73;0.50;;;;;;;6.11;76.61;95565.88;5012190;28;20462;-79
2022/02/20 10:54:27;;;;;;;1.40;0.50;;;;;;;6.16;75.07;95568.91;5013253;28;20222;-78
2022/02/20 10:56:54;;;;;;;2.10;0.40;;;;;;;6.00;75.52;95572.78;5012308;28;20191;-77
2022/02/20 10:59:21;;;;;;;0.50;0.40;;;;;;;5.94;76.03;95569.75;5009487;28;20186;-77
2022/02/20 11:01:48;;;;;;;4.23;0.73;;;;;;;6.27;75.52;95567.22;5010469;28;20286;-77
2022/02/20 11:04:15;;;;;;;3.57;0.57;;;;;;;6.09;75.32;95572.06;5011004;28;20210;-78
2022/02/20 11:06:50;;;;;;;2.23;0.60;;;;;;;6.22;74.99;95567.63;5026018;28;20187;-77
2022/02/20 11:09:16;;;;;;;1.17;0.97;;;;;;;6.42;74.91;95566.03;5025205;28;20205;-78
2022/02/20 11:11:49;;;;;;;2.07;0.80;;;;;;;6.25;74.38;95577.69;5009109;28;20194;-77
2022/02/20 11:14:16;;;;;;;1.93;0.90;;;;;;;6.37;74.74;95565.59;5024105;28;20671;-78
2022/02/20 11:16:48;;;;;;;2.33;0.50;;;;;;;6.23;74.26;95558.94;5026692;28;20183;-77
2022/02/20 11:19:15;;;;;;;1.10;0.90;;;;;;;6.07;75.31;95576.53;5008323;28;20183;-77
2022/02/20 11:21:43;;;;;;;1.37;0.63;;;;;;;6.37;75.07;95557.84;5021675;28;20355;-78
2022/02/20 11:24:09;;;;;;;0.97;0.50;;;;;;;6.19;75.23;95545.47;5014124;28;20294;-76
2022/02/20 11:26:38;;;;;;;1.17;0.53;;;;;;;5.92;76.71;95540.72;5012863;28;20183;-79
2022/02/20 11:29:04;;;;;;;0.77;0.43;;;;;;;5.88;76.70;95541.03;5011517;28;20270;-77
2022/02/20 11:31:29;;;;;;;0.80;0.60;;;;;;;5.97;76.65;95543.75;5003279;28;20246;-79
2022/02/20 11:33:55;;;;;;;2.17;1.30;;;;;;;6.01;77.00;95535.75;5006550;28;20656;-80
2022/02/20 11:36:27;;;;;;;1.80;0.70;;;;;;;5.90;77.31;95532.25;5026752;28;20202;-79